TimeCDT,TemperatureF,Dew PointF,Humidity,Sea Level PressureIn,VisibilityMPH,Wind Direction,Wind SpeedMPH,Gust SpeedMPH,PrecipitationIn,Events,Conditions,WindDirDegrees,DateUTC
12:15 AM,51.1,43.7,76,29.98,10.0,Calm,Calm,-,N/A,,Clear,0,2013-06-30 05:15:00
12:35 AM,50.2,43.7,78,29.98,5.0,Calm,Calm,-,N/A,,Haze,0,2013-06-30 05:35:00
12:55 AM,49.6,44.2,82,29.98,10.0,North,3.5,-,N/A,,Clear,350,2013-06-30 05:55:00
1:15 AM,49.1,43.9,82,29.98,10.0,Calm,Calm,-,N/A,,Clear,0,2013-06-30 06:15:00
1:35 AM,47.8,43.9,86,29.98,10.0,Calm,Calm,-,N/A,,Clear,0,2013-06-30 06:35:00
1:55 AM,46.6,45.0,94,29.98,10.0,Calm,Calm,-,N/A,,Clear,0,2013-06-30 06:55:00
2:15 AM,46.4,45.3,96,29.98,10.0,NNE,3.5,-,N/A,,Clear,20,2013-06-30 07:15:00
2:35 AM,47.5,45.7,93,29.99,10.0,NNE,3.5,-,N/A,,Clear,20,2013-06-30 07:35:00
2:55 AM,48.0,45.5,91,29.99,10.0,NNE,3.5,-,N/A,,Clear,20,2013-06-30 07:55:00
3:15 AM,46.8,43.7,89,29.99,10.0,Calm,Calm,-,N/A,,Clear,0,2013-06-30 08:15:00
3:35 AM,46.6,45.1,95,30.00,10.0,Calm,Calm,-,N/A,,Clear,0,2013-06-30 08:35:00
3:55 AM,46.4,45.7,97,30.00,10.0,Calm,Calm,-,N/A,,Clear,0,2013-06-30 08:55:00
4:15 AM,45.3,43.3,93,30.01,10.0,Calm,Calm,-,N/A,,Clear,0,2013-06-30 09:15:00
4:35 AM,45.1,44.2,97,30.01,10.0,North,3.5,-,N/A,,Clear,10,2013-06-30 09:35:00
4:55 AM,47.3,45.1,92,30.02,10.0,NNE,3.5,-,N/A,,Clear,20,2013-06-30 09:55:00
5:15 AM,45.9,44.6,95,30.02,10.0,Calm,Calm,-,N/A,,Clear,0,2013-06-30 10:15:00
5:35 AM,46.4,44.4,93,30.02,10.0,Calm,Calm,-,N/A,,Clear,0,2013-06-30 10:35:00
5:55 AM,45.7,44.8,97,30.03,10.0,Calm,Calm,-,N/A,,Clear,0,2013-06-30 10:55:00
6:15 AM,47.5,45.7,93,30.03,10.0,Calm,Calm,-,N/A,,Clear,0,2013-06-30 11:15:00
6:35 AM,50.5,47.1,88,30.04,10.0,Calm,Calm,-,N/A,,Clear,0,2013-06-30 11:35:00
6:55 AM,53.2,45.0,73,30.04,10.0,North,3.5,-,N/A,,Clear,360,2013-06-30 11:55:00
7:15 AM,55.2,45.9,71,30.05,10.0,North,4.6,-,N/A,,Clear,10,2013-06-30 12:15:00
7:35 AM,57.2,45.9,66,30.05,10.0,North,5.8,-,N/A,,Clear,10,2013-06-30 12:35:00
7:55 AM,59.0,46.6,63,30.05,10.0,North,4.6,-,N/A,,Clear,350,2013-06-30 12:55:00
8:15 AM,60.8,46.8,60,30.05,10.0,North,3.5,-,N/A,,Clear,10,2013-06-30 13:15:00
8:35 AM,62.8,46.0,54,30.06,10.0,North,4.6,-,N/A,,Clear,350,2013-06-30 13:35:00
8:55 AM,64.6,44.8,49,30.06,10.0,North,4.6,-,N/A,,Clear,360,2013-06-30 13:55:00
9:35 AM,68.2,43.2,40,30.06,10.0,North,4.6,-,N/A,,Clear,10,2013-06-30 14:35:00
10:35 AM,71.4,37.6,29,30.07,10.0,NNE,11.5,17.3,N/A,,Clear,30,2013-06-30 15:35:00
12:15 PM,73.9,36.7,26,30.07,10.0,NE,10.4,17.3,N/A,,Clear,50,2013-06-30 17:15:00
12:35 PM,74.3,38.1,27,30.07,10.0,NE,11.5,-,N/A,,Clear,50,2013-06-30 17:35:00
12:55 PM,74.8,37.8,26,30.07,10.0,NE,10.4,17.3,N/A,,Clear,40,2013-06-30 17:55:00
1:55 PM,75.9,40.8,28,30.07,10.0,NE,10.4,17.3,N/A,,Clear,50,2013-06-30 18:55:00
2:15 PM,75.9,40.6,28,30.07,10.0,NNE,10.4,23.0,N/A,,Scattered Clouds,30,2013-06-30 19:15:00
2:55 PM,77.2,40.3,27,30.07,10.0,NNE,13.8,17.3,N/A,,Scattered Clouds,30,2013-06-30 19:55:00
3:15 PM,77.0,39.6,26,30.07,10.0,NE,11.5,18.4,N/A,,Clear,50,2013-06-30 20:15:00
3:35 PM,77.2,40.8,27,30.07,10.0,NE,9.2,16.1,N/A,,Scattered Clouds,50,2013-06-30 20:35:00
4:35 PM,75.9,41.4,29,30.08,10.0,North,4.6,-,N/A,,Scattered Clouds,10,2013-06-30 21:35:00
4:55 PM,75.9,42.6,30,30.08,10.0,NNE,6.9,-,N/A,,Scattered Clouds,20,2013-06-30 21:55:00
5:15 PM,76.1,41.5,29,30.08,10.0,North,10.4,-,N/A,,Scattered Clouds,10,2013-06-30 22:15:00
5:55 PM,76.1,42.8,30,30.08,10.0,NNE,9.2,-,N/A,,Clear,20,2013-06-30 22:55:00
6:15 PM,75.2,41.0,29,30.08,10.0,NNE,10.4,-,N/A,,Clear,20,2013-06-30 23:15:00
6:35 PM,74.7,41.5,30,30.09,10.0,North,10.4,-,N/A,,Clear,10,2013-06-30 23:35:00
6:55 PM,73.9,40.5,30,30.09,10.0,NNE,10.4,-,N/A,,Clear,20,2013-06-30 23:55:00
7:15 PM,73.2,40.5,31,30.09,10.0,NNE,9.2,-,N/A,,Clear,20,2013-07-01 00:15:00
7:35 PM,72.0,41.7,34,30.10,10.0,North,5.8,-,N/A,,Clear,360,2013-07-01 00:35:00
7:55 PM,70.3,42.3,36,30.10,10.0,North,4.6,-,N/A,,Clear,10,2013-07-01 00:55:00
8:15 PM,69.3,43.2,39,30.10,10.0,North,3.5,-,N/A,,Clear,360,2013-07-01 01:15:00
8:35 PM,63.9,47.8,56,30.10,10.0,North,3.5,-,N/A,,Clear,360,2013-07-01 01:35:00
9:35 PM,58.1,49.5,73,30.11,10.0,Calm,Calm,-,N/A,,Clear,0,2013-07-01 02:35:00
10:15 PM,55.4,49.1,79,30.13,10.0,Calm,Calm,-,N/A,,Clear,0,2013-07-01 03:15:00
10:35 PM,54.5,49.1,82,30.13,10.0,Calm,Calm,-,N/A,,Clear,0,2013-07-01 03:35:00
10:55 PM,54.3,49.1,83,30.13,10.0,Calm,Calm,-,N/A,,Clear,0,2013-07-01 03:55:00
11:35 PM,52.7,51.6,96,30.14,10.0,Calm,Calm,-,N/A,,Clear,0,2013-07-01 04:35:00
11:55 PM,52.9,51.4,95,30.14,10.0,Calm,Calm,-,N/A,,Clear,0,2013-07-01 04:55:00